Date,TemperatureHighF,TemperatureAvgF,TemperatureLowF,DewpointHighF,DewpointAvgF,DewpointLowF,HumidityHigh,HumidityAvg,HumidityLow,PressureMaxIn,PressureMinIn,WindSpeedMaxMPH,WindSpeedAvgMPH,GustSpeedMaxMPH,PrecipitationSumIn
2014-1-1,7,1,-8,-3,-7,-12,83,71,58,0.00,40.00,6,2,11,0.00
2014-1-2,10,4,-7,-2,-4,-12,81,69,54,0.00,40.00,8,3,15,0.00
2014-1-3,21,5,-15,14,-1,-17,89,77,65,0.00,40.00,14,7,32,0.00
2014-1-4,31,22,10,29,15,-100,92,76,68,0.00,40.00,15,9,32,0.00
2014-1-5,10,-1,-12,3,-9,-18,75,68,58,0.00,40.00,13,8,22,0.00
2014-1-6,-12,-16,-23,-18,-22,-29,76,72,66,0.00,40.00,14,10,24,0.00
2014-1-7,4,-7,-16,-7,-14,-21,83,72,58,0.00,40.00,9,4,17,0.00
2014-1-8,7,-3,-14,-3,-10,-18,88,75,60,0.00,40.00,7,2,10,0.00
2014-1-9,20,-9,-20,19,-12,-23,94,86,61,0.00,40.00,4,1,7,0.00
2014-1-10,31,29,20,31,28,19,99,99,94,0.00,40.00,8,4,12,0.00
2014-1-11,31,29,26,31,27,-100,99,95,92,0.00,40.00,13,7,20,0.00
2014-1-12,43,34,20,33,28,20,99,79,57,0.00,40.00,14,6,26,0.00
2014-1-13,38,33,26,33,28,20,92,81,60,0.00,40.00,14,6,24,0.00
2014-1-14,28,24,15,28,22,10,99,95,84,0.00,40.00,16,8,31,0.00
2014-1-15,15,10,6,10,4,2,88,79,65,0.00,40.00,11,6,19,0.00
2014-1-16,34,21,9,32,14,2,92,74,62,0.00,40.00,16,10,27,0.00
2014-1-17,17,12,3,10,7,0,93,81,72,0.00,40.00,10,7,19,0.00
2014-1-18,18,9,-1,13,5,-100,94,87,78,0.00,40.00,9,-12,13,0.00
2014-1-19,38,28,14,29,22,13,96,80,59,0.00,40.00,12,6,20,0.00
2014-1-20,31,20,2,28,15,-6,98,82,67,0.00,40.00,13,4,22,0.00
2014-1-21,6,-2,-9,-5,-10,-14,78,68,55,0.00,40.00,9,4,16,0.00
2014-1-22,7,4,-1,4,-1,-10,89,80,66,0.00,40.00,17,7,24,0.00
2014-1-23,1,-5,-9,-7,-11,-14,81,74,65,0.00,40.00,11,7,21,0.00
2014-1-24,31,18,-9,30,11,-14,99,76,63,0.00,40.00,17,9,30,0.00
2014-1-25,31,11,3,27,-4,-100,86,54,45,0.00,40.00,19,12,37,0.00
2014-1-26,18,8,1,13,4,-6,96,83,56,0.00,40.00,23,10,40,0.00
2014-1-27,1,-9,-13,-4,-15,-19,78,71,63,0.00,40.00,17,11,28,0.00
2014-1-28,2,-6,-17,-8,-13,-21,84,73,59,0.00,40.00,10,6,20,0.00
2014-1-29,28,14,-6,14,2,-10,83,60,44,0.00,40.00,11,7,22,0.00
2014-1-30,30,25,10,29,18,3,99,76,56,0.00,40.00,14,8,26,0.00
2014-1-31,10,1,-10,3,-6,-13,85,71,57,0.00,40.00,7,2,12,0.00
2014-2-1,22,7,-10,14,0,-100,89,78,68,0.00,40.00,7,1,14,0.00
2014-2-2,13,4,-10,6,-2,-13,92,75,56,0.00,40.00,9,3,12,0.00
2014-2-3,24,18,-10,10,8,-13,84,65,55,0.00,40.00,9,5,16,0.00
2014-2-4,18,11,1,8,4,0,94,75,54,0.00,40.00,7,2,11,0.00
2014-2-5,13,8,-2,6,3,-5,87,78,69,0.00,40.00,10,7,16,0.00
2014-2-6,7,-2,-9,-2,-6,-10,93,81,65,0.00,40.00,10,5,18,0.00
2014-2-7,15,6,-4,0,-3,-6,90,69,49,0.00,40.00,9,6,23,0.00
2014-2-8,15,10,-3,11,7,-6,96,88,81,0.00,40.00,4,2,7,0.00
2014-2-9,13,5,-1,8,0,-9,98,79,59,0.00,40.00,12,6,19,0.00
2014-2-10,8,2,-7,-4,-7,-12,78,67,59,0.00,40.00,9,4,12,0.00
2014-2-11,16,2,-18,0,-7,-20,91,67,48,0.00,40.00,7,4,14,0.00
2014-2-12,25,14,4,16,7,-2,92,74,65,0.00,40.00,9,3,14,0.00
2014-2-13,30,19,5,27,17,3,99,91,83,0.00,40.00,12,6,27,0.00
2014-2-14,18,12,5,9,6,0,95,78,63,0.00,40.00,10,5,18,0.00
2014-2-15,22,18,6,17,9,-100,99,77,54,0.00,40.00,7,3,11,0.00
2014-2-16,27,18,11,17,12,9,99,78,56,0.00,40.00,11,6,17,0.00
2014-2-17,25,21,15,24,20,9,99,94,79,0.00,40.00,13,7,21,0.00
2014-2-18,45,31,10,30,24,10,99,79,52,0.00,40.00,7,3,15,0.00
2014-2-19,46,36,26,30,27,25,95,72,43,0.00,40.00,9,5,14,0.00
2014-2-20,37,34,31,36,31,26,99,91,72,0.00,40.00,21,8,34,0.00
2014-2-21,33,19,14,32,15,11,99,86,74,0.00,40.00,17,13,34,0.00
2014-2-22,23,16,9,12,7,-100,86,73,59,0.00,40.00,12,8,24,0.00
2014-2-23,20,12,5,8,5,2,87,75,59,0.00,40.00,10,7,22,0.00
2014-2-24,17,11,4,7,4,2,88,75,60,0.00,40.00,11,8,21,0.00
2014-2-25,11,6,-1,7,-1,-7,95,76,59,0.00,40.00,15,9,22,0.00
2014-2-26,14,4,-9,13,-4,-13,94,72,49,0.00,40.00,19,10,35,0.00
2014-2-27,8,-3,-16,-3,-14,-22,73,58,44,0.00,40.00,20,7,29,0.00
2014-2-28,16,1,-18,15,-4,-23,98,80,58,0.00,40.00,9,2,14,0.00
2014-3-1,14,6,-1,13,0,-100,94,78,70,0.00,40.00,9,7,17,0.00
2014-3-2,4,-2,-8,-9,-15,-19,70,54,42,0.00,40.00,9,6,15,0.00
2014-3-3,17,8,-17,0,-6,-21,83,55,43,0.00,40.00,6,2,11,0.00
2014-3-4,25,16,10,14,9,0,97,78,55,0.00,40.00,5,2,8,0.00
2014-3-5,23,16,3,13,7,-1,89,69,48,0.00,40.00,9,5,17,0.00
2014-3-6,31,16,-5,18,10,-6,96,78,60,0.00,40.00,9,4,14,0.00
2014-3-7,42,33,22,32,28,18,96,83,66,0.00,40.00,10,5,16,0.00
2014-3-8,32,26,20,29,17,-100,89,72,52,0.00,40.00,11,4,16,0.00
2014-3-9,47,32,15,36,25,13,96,75,55,0.00,40.00,12,5,24,0.00
2014-3-10,56,47,36,38,36,35,97,70,49,0.00,40.00,11,3,18,0.00
2014-3-11,44,40,36,39,34,26,96,77,60,0.00,40.00,7,4,14,0.00
2014-3-12,36,28,15,27,16,6,89,63,46,0.00,40.00,13,6,21,0.00
2014-3-13,43,31,12,38,25,8,91,78,67,0.00,40.00,11,5,21,0.00
2014-3-14,45,41,32,38,35,25,90,79,73,0.00,40.00,16,8,25,0.00
2014-3-15,34,29,23,25,18,-100,84,69,49,0.00,40.00,12,4,25,0.00
2014-3-16,25,18,9,12,7,2,80,64,47,0.00,40.00,11,6,20,0.00
2014-3-17,36,25,18,21,16,12,82,71,53,0.00,40.00,11,7,21,0.00
2014-3-18,46,35,24,35,30,24,99,82,64,0.00,40.00,12,6,20,0.00
2014-3-19,36,33,32,34,31,25,99,94,75,0.00,40.00,16,8,24,0.00
2014-3-20,43,34,26,30,26,-100,96,77,54,0.00,40.00,7,-10,13,0.00
2014-3-21,51,34,20,36,26,-100,99,80,47,0.00,40.00,16,6,26,0.00
2014-3-22,36,25,16,32,16,-100,98,74,52,0.00,40.00,15,11,26,0.00
2014-3-23,23,17,10,11,8,6,86,70,50,0.00,40.00,11,6,19,0.00
2014-3-24,34,23,11,27,18,9,99,82,54,0.00,40.00,13,5,23,0.00
2014-3-25,24,17,11,20,8,3,88,67,52,0.00,40.00,16,9,26,0.00
2014-3-26,37,24,6,26,15,5,97,70,48,0.00,40.00,14,6,27,0.00
2014-3-27,41,38,35,38,35,26,99,89,58,0.00,40.00,9,6,18,0.00
2014-3-28,43,35,30,35,27,23,99,75,46,0.00,40.00,12,6,21,0.00
2014-3-29,48,36,29,33,27,-100,96,73,50,0.00,40.00,7,2,11,0.00
2014-3-30,61,44,27,37,33,26,98,70,42,0.00,40.00,13,6,28,0.00
2014-3-31,65,52,39,48,42,36,89,71,52,0.00,40.00,17,8,27,0.00
2014-4-1,56,32,27,48,26,-100,99,85,73,0.00,40.00,16,11,29,0.00
2014-4-2,48,39,23,29,24,22,99,59,36,0.00,40.00,11,6,17,0.00
2014-4-3,39,35,32,33,29,24,97,78,59,0.00,40.00,16,12,26,0.00
2014-4-4,35,33,31,33,32,30,99,97,87,0.00,40.00,15,-35,32,0.00
2014-4-5,52,39,27,36,28,-100,99,73,42,0.00,40.00,9,3,17,0.00
2014-4-6,62,50,31,48,38,29,93,66,48,0.00,40.00,15,7,24,0.00
2014-4-7,59,47,37,49,42,37,99,86,59,0.00,40.00,10,2,16,0.00
2014-4-8,55,45,35,43,35,30,99,71,42,0.00,40.00,11,6,21,0.00
2014-4-9,62,46,30,36,32,29,97,63,38,0.00,40.00,9,4,21,0.00
2014-4-10,58,53,41,43,35,21,66,51,29,0.00,40.00,10,6,24,0.00
2014-4-11,64,53,36,42,37,26,82,57,41,0.00,40.00,11,4,21,0.00
2014-4-12,47,44,42,44,40,-100,99,94,80,0.00,40.00,16,5,22,0.00
2014-4-13,46,42,36,46,42,35,99,99,99,0.00,40.00,10,4,29,0.00
2014-4-14,36,31,28,35,28,22,99,89,65,0.00,40.00,14,10,25,0.00
2014-4-15,27,27,26,23,20,17,84,76,66,0.00,40.00,0,0,2,0.00
2014-4-16,49,39,27,32,28,20,88,67,50,0.00,40.00,17,10,26,0.00
2014-4-17,47,43,38,41,35,31,86,74,56,0.00,40.00,18,7,27,0.00
2014-4-18,54,42,27,34,28,26,99,64,36,0.00,40.00,8,3,12,0.00
2014-4-19,47,38,33,34,30,29,86,75,51,0.00,40.00,15,11,24,0.00
2014-4-20,62,58,54,59,54,42,99,88,50,0.00,40.00,6,2,12,0.00
2014-4-21,72,60,51,61,50,32,99,75,29,0.00,40.00,12,5,26,0.00
2014-4-22,55,46,37,34,31,28,74,56,37,0.00,40.00,14,8,26,0.00
2014-4-23,55,42,28,43,31,26,99,69,34,0.00,40.00,11,5,19,0.00
2014-4-24,47,42,37,46,41,36,99,99,98,0.00,40.00,16,9,23,0.00
2014-4-25,62,52,39,46,41,35,99,71,38,0.00,40.00,15,7,27,0.00
2014-4-26,53,44,33,38,32,-100,94,67,46,0.00,40.00,14,6,22,0.00
2014-4-27,45,40,38,42,39,36,99,93,74,0.00,40.00,21,13,35,0.00
2014-4-28,44,43,41,44,41,39,99,94,86,0.00,40.00,19,14,34,0.00
2014-4-29,43,40,36,42,40,36,99,99,90,0.00,40.00,12,6,29,0.00
2014-4-30,47,43,41,46,43,40,99,99,94,0.00,40.00,5,3,10,0.00
2014-5-1,47,44,41,45,43,41,99,96,90,0.00,40.00,10,6,18,0.00
2014-5-2,53,47,43,47,43,40,99,87,62,0.00,40.00,7,4,14,0.00
2014-5-3,60,50,41,45,36,-100,99,65,38,0.00,40.00,16,8,30,0.00
2014-5-4,60,50,40,34,30,26,66,48,30,0.00,40.00,10,5,16,0.00
2014-5-5,60,51,44,39,36,33,75,59,45,0.00,40.00,12,8,22,0.00
2014-5-6,63,52,40,46,39,38,92,65,44,0.00,40.00,16,10,28,0.00
2014-5-13,52,50,48,42,40,38,76,70,67,0.00,40.00,11,6,16,0.00
2014-5-14,59,51,42,38,35,31,83,56,36,0.00,40.00,11,6,20,0.00
2014-5-15,44,43,42,31,31,30,62,61,60,0.00,40.00,1,1,10,0.00
2014-5-16,50,42,32,36,31,28,96,67,44,0.00,40.00,9,3,19,0.00
2014-5-17,62,48,36,39,32,-100,89,59,34,0.00,40.00,9,3,20,0.00
2014-5-18,69,54,44,43,40,38,81,61,34,0.00,40.00,7,3,14,0.00
2014-5-19,60,52,52,53,43,-100,99,84,62,0.00,40.00,13,7,26,0.00
2014-5-20,81,64,53,65,55,-100,99,78,43,0.00,40.00,6,3,12,0.00
2014-5-21,72,64,58,53,50,48,74,60,51,0.00,40.00,12,9,22,0.00
2014-5-22,71,58,50,50,46,-100,93,68,44,0.00,40.00,11,5,17,0.00
2014-5-23,74,59,43,51,47,43,99,68,37,0.00,40.00,9,2,17,0.00
2014-5-24,77,63,48,53,50,47,99,67,37,0.00,40.00,4,1,11,0.00
2014-5-25,83,67,45,59,51,45,99,63,35,0.00,40.00,9,3,17,0.00
2014-5-26,85,74,64,71,67,59,97,79,52,0.00,40.00,7,3,15,0.00
2014-5-27,79,70,66,70,68,66,99,94,76,0.00,40.00,9,3,15,0.00
2014-5-28,76,66,55,66,55,49,99,71,41,0.00,40.00,7,4,15,0.00
2014-5-29,82,64,50,58,54,50,99,74,34,0.00,40.00,7,3,12,0.00
2014-5-30,85,67,52,60,57,51,99,74,38,0.00,40.00,9,2,14,0.00
2014-5-31,86,67,54,64,56,-100,99,75,40,0.00,40.00,9,2,16,0.00
2014-6-1,82,70,67,72,68,64,99,94,71,0.00,40.00,11,5,22,0.00
2014-6-2,80,72,66,69,66,60,99,82,56,0.00,40.00,13,7,25,0.00
2014-6-3,75,66,58,61,56,53,94,72,49,0.00,40.00,11,7,24,0.00
2014-6-4,76,67,60,62,60,59,99,81,60,0.00,40.00,5,2,12,0.00
2014-6-5,79,67,55,62,56,51,99,73,39,0.00,40.00,7,3,14,0.00
2014-6-6,75,64,58,65,60,54,99,87,63,0.00,40.00,7,1,9,0.00
2014-6-7,81,64,56,68,60,-100,99,91,63,0.00,40.00,9,2,16,0.00
2014-6-8,69,60,55,58,54,49,99,83,50,0.00,40.00,7,3,12,0.00
2014-6-9,74,64,53,54,49,42,99,63,32,0.00,40.00,6,3,14,0.00
2014-6-10,74,65,53,59,53,47,99,69,39,0.00,40.00,7,4,15,0.00
2014-6-11,76,63,55,60,56,54,98,82,49,0.00,40.00,6,2,15,0.00
2014-6-12,69,66,59,58,52,48,74,62,52,0.00,40.00,15,11,23,0.00
2014-6-13,74,61,51,53,45,41,94,59,37,0.00,40.00,11,6,18,0.00
2014-6-14,77,64,50,58,49,-100,99,65,39,0.00,40.00,12,5,25,0.00
2014-6-15,83,72,62,67,60,52,94,67,48,0.00,40.00,13,8,28,0.00
2014-6-16,87,72,54,67,60,54,99,70,39,0.00,40.00,10,4,18,0.00
2014-6-17,85,74,62,71,66,61,99,79,54,0.00,40.00,10,4,17,0.00
2014-6-18,78,71,64,72,68,64,99,92,76,0.00,40.00,11,6,19,0.00
2014-6-19,75,69,64,70,67,64,99,94,84,0.00,40.00,23,10,35,0.00
2014-6-20,85,74,66,72,68,64,99,83,50,0.00,40.00,6,2,11,0.00
2014-6-21,84,73,64,73,66,-100,99,82,51,0.00,40.00,7,4,14,0.00
2014-6-22,79,68,57,70,66,57,99,93,73,0.00,40.00,8,3,14,0.00
2014-6-23,81,72,63,70,67,63,99,87,64,0.00,40.00,9,2,14,0.00
2014-6-24,84,73,66,69,65,62,99,78,48,0.00,40.00,7,3,14,0.00
2014-6-25,80,68,63,68,65,63,99,91,60,0.00,40.00,4,2,13,0.00
2014-6-26,80,69,62,69,65,61,99,89,66,0.00,40.00,9,6,14,0.00
2014-6-27,84,74,65,74,70,63,99,87,66,0.00,40.00,12,6,22,0.00
2014-6-28,85,76,69,74,70,-100,99,85,69,0.00,40.00,12,7,28,0.00
2014-6-29,86,75,66,74,69,63,99,83,48,0.00,40.00,10,5,21,0.00
2014-6-30,79,70,65,74,69,65,99,95,79,0.00,40.00,22,5,32,0.00
2014-7-1,69,66,63,65,62,62,99,91,79,0.00,40.00,9,6,21,0.00
2014-7-2,69,62,57,57,55,53,93,79,58,0.00,40.00,6,4,12,0.00
2014-7-3,76,63,47,57,52,47,99,71,40,0.00,40.00,9,2,16,0.00
2014-7-4,81,66,50,60,54,50,99,71,39,0.00,40.00,7,2,12,0.00
2014-7-5,78,70,62,67,59,-100,95,73,62,0.00,40.00,11,7,22,0.00
2014-7-6,82,73,65,77,71,65,99,95,78,0.00,40.00,9,5,17,0.00
2014-7-7,84,71,63,70,66,63,99,87,54,0.00,40.00,8,4,17,0.00
2014-7-8,73,67,61,65,61,56,99,84,55,0.00,40.00,13,7,22,0.00
2014-7-9,74,64,57,60,56,49,99,77,49,0.00,40.00,9,4,20,0.00
2014-7-10,81,64,51,67,58,51,99,85,56,0.00,40.00,7,2,13,0.00
2014-7-11,76,70,67,69,64,62,90,83,71,0.00,40.00,9,5,19,0.00
2014-7-12,76,68,64,74,67,63,99,95,89,0.00,40.00,7,2,12,0.00
2014-7-13,75,68,60,68,59,49,99,77,41,0.00,40.00,12,5,19,0.00
2014-7-14,66,60,53,59,54,49,99,83,56,0.00,40.00,12,5,25,0.00
2014-7-15,66,58,53,59,55,52,99,90,71,0.00,40.00,11,7,19,0.00
2014-7-16,72,56,47,57,51,46,99,86,41,0.00,40.00,6,1,12,0.00
2014-7-17,78,63,48,59,53,48,99,74,39,0.00,40.00,4,1,12,0.00
2014-7-18,79,67,55,61,58,54,99,75,47,0.00,40.00,8,3,16,0.00
2014-7-19,80,69,59,64,61,58,99,77,53,0.00,40.00,8,4,18,0.00
2014-7-20,81,74,62,67,66,62,99,77,59,0.00,40.00,10,5,20,0.00
2014-7-21,87,79,69,74,70,67,94,77,63,0.00,40.00,9,6,16,0.00
2014-7-22,90,79,71,78,72,65,91,79,65,0.00,40.00,11,6,19,0.00
2014-7-23,78,68,56,65,59,56,99,78,48,0.00,40.00,6,2,12,0.00
2014-7-24,81,66,53,62,57,53,99,77,42,0.00,40.00,6,1,9,0.00
2014-7-25,73,67,61,67,64,60,99,89,81,0.00,40.00,9,4,20,0.00
2014-7-26,80,70,66,74,68,66,99,94,77,0.00,40.00,6,3,12,0.00
2014-7-27,73,68,61,70,64,57,99,89,71,0.00,40.00,13,6,30,0.00
2014-7-28,73,64,54,58,54,51,99,73,46,0.00,40.00,9,5,17,0.00
2014-7-29,78,66,56,65,59,56,99,83,52,0.00,40.00,9,4,17,0.00
2014-7-30,75,64,55,64,58,55,99,86,50,0.00,40.00,6,2,12,0.00
2014-7-31,80,64,59,64,58,59,99,84,53,0.00,40.00,9,3,17,0.00
2014-8-1,85,69,61,65,62,60,99,81,45,0.00,40.00,10,3,18,0.00
2014-8-2,86,66,55,68,61,55,99,87,47,0.00,40.00,5,1,8,0.00
2014-8-3,87,73,63,70,66,62,99,82,52,0.00,40.00,7,2,12,0.00
2014-8-4,78,68,62,71,66,62,99,96,77,0.00,40.00,7,2,14,0.00
2014-8-5,77,67,62,67,64,62,99,91,63,0.00,40.00,4,1,7,0.00
2014-8-6,82,71,55,67,60,55,99,75,43,0.00,40.00,6,1,8,0.00
2014-8-7,80,69,56,64,60,56,99,76,49,0.00,40.00,11,4,15,0.00
2014-8-8,80,67,54,67,60,54,99,82,47,0.00,40.00,7,2,11,0.00
2014-8-9,79,64,58,64,61,58,99,91,54,0.00,40.00,9,2,16,0.00
2014-8-10,81,76,70,69,64,61,94,69,55,0.00,40.00,6,2,10,0.00
2014-8-11,77,66,60,69,64,60,99,93,72,0.00,40.00,12,3,25,0.00
2014-8-12,74,64,55,60,56,51,99,77,48,0.00,40.00,12,8,23,0.00
2014-8-13,78,68,59,64,60,55,93,75,52,0.00,40.00,9,3,15,0.00
2014-8-14,73,64,47,56,51,47,99,68,41,0.00,40.00,4,1,10,0.00
2014-8-15,83,65,49,68,58,49,99,82,52,0.00,40.00,9,2,14,0.00
2014-8-16,84,72,62,72,66,62,99,83,62,0.00,40.00,6,3,12,0.00
2014-8-17,78,69,63,71,64,61,99,86,66,0.00,40.00,10,6,16,0.00
2014-8-18,85,68,63,74,66,62,99,94,70,0.00,40.00,7,4,17,0.00
2014-8-19,77,70,64,68,66,63,99,88,66,0.00,40.00,9,4,17,0.00
2014-8-20,83,71,60,70,66,60,99,85,60,0.00,40.00,4,2,11,0.00
2014-8-21,78,70,66,75,69,65,99,97,85,0.00,40.00,8,4,15,0.00
2014-8-22,86,75,67,79,73,66,99,95,80,0.00,40.00,6,2,10,0.00
2014-8-23,74,58,69,74,58,69,99,79,99,0.00,40.00,7,4,10,0.00
2014-8-24,84,79,74,79,76,72,99,91,82,0.00,40.00,10,8,18,0.00
2014-8-25,88,78,68,79,74,68,99,90,69,0.00,40.00,7,4,14,0.00
2014-8-26,74,67,62,72,60,55,99,80,60,0.00,40.00,9,4,15,0.00
2014-8-27,73,64,58,62,60,58,99,88,62,0.00,40.00,4,1,6,0.00
2014-8-28,73,67,55,69,63,54,99,90,74,0.00,40.00,11,5,17,0.00
2014-8-29,85,77,63,74,71,62,99,83,68,0.00,40.00,12,5,18,0.00
2014-8-30,77,68,65,70,67,64,99,93,72,0.00,40.00,9,4,16,0.00
2014-8-31,83,72,60,71,67,60,99,86,63,0.00,40.00,9,4,17,0.00
2014-9-1,80,71,63,71,65,60,99,83,62,0.00,40.00,14,5,24,0.00
2014-9-2,78,67,58,63,60,58,99,83,57,0.00,40.00,7,3,15,0.00
2014-9-3,82,68,56,69,61,55,99,82,52,0.00,40.00,11,4,18,0.00
2014-9-4,79,75,72,76,73,69,99,91,79,0.00,40.00,14,6,29,0.00
2014-9-5,78,66,55,78,61,54,99,87,74,0.00,40.00,13,6,24,0.00
2014-9-6,74,61,49,57,52,49,99,76,46,0.00,40.00,9,4,19,0.00
2014-9-7,79,64,51,60,55,51,99,77,42,0.00,40.00,8,2,15,0.00
2014-9-8,71,62,51,60,55,50,99,80,54,0.00,40.00,9,4,17,0.00
2014-9-9,79,68,58,68,64,58,99,88,60,0.00,40.00,7,3,12,0.00
2014-9-10,67,59,46,67,57,40,99,94,81,0.00,40.00,19,8,29,0.00
2014-9-11,55,48,43,44,41,40,96,78,60,0.00,40.00,11,5,18,0.00
2014-9-12,48,44,41,45,42,41,99,95,82,0.00,40.00,6,1,12,0.00
2014-9-13,58,44,33,45,37,33,99,79,46,0.00,40.00,6,2,12,0.00
2014-9-14,68,57,40,56,46,39,99,71,49,0.00,40.00,10,5,22,0.00
2014-9-15,59,52,46,55,48,43,99,87,61,0.00,40.00,9,3,15,0.00
2014-9-16,66,51,38,49,42,38,99,77,41,0.00,40.00,7,2,14,0.00
2014-9-17,71,55,41,57,48,41,99,82,50,0.00,40.00,6,1,11,0.00
2014-9-18,62,53,48,55,51,48,99,94,78,0.00,40.00,9,4,13,0.00
2014-9-19,66,53,47,53,51,47,99,95,62,0.00,40.00,10,4,19,0.00
2014-9-23,74,66,51,55,52,50,99,64,47,0.00,40.00,7,4,15,0.00
2014-9-24,67,57,47,60,53,47,99,89,60,0.00,40.00,9,2,16,0.00
2014-9-25,76,61,54,60,56,51,99,86,44,0.00,40.00,6,2,11,0.00
2014-9-26,78,59,45,61,53,45,99,84,46,0.00,40.00,10,2,16,0.00
2014-9-27,81,62,51,63,56,51,99,84,45,0.00,40.00,6,2,13,0.00
2014-9-28,82,65,52,65,58,52,99,84,47,0.00,40.00,4,1,7,0.00
2014-9-29,65,56,45,60,55,45,99,97,84,0.00,40.00,8,2,14,0.00
2014-9-30,50,46,42,45,43,41,99,91,80,0.00,40.00,11,6,17,0.00
2014-10-1,63,54,45,59,52,44,99,91,79,0.00,40.00,10,6,16,0.00
2014-10-2,70,61,54,66,59,54,99,95,80,0.00,40.00,13,2,26,0.00
2014-10-3,56,49,41,55,44,31,99,85,63,0.00,40.00,21,10,32,0.00
2014-10-4,48,41,33,40,35,31,99,82,62,0.00,40.00,16,9,26,0.00
2014-10-5,50,41,32,38,33,30,98,75,49,0.00,40.00,13,4,20,0.00
2014-10-6,56,46,33,43,34,29,99,69,37,0.00,40.00,11,4,20,0.00
2014-10-7,60,53,46,44,41,38,90,66,48,0.00,40.00,12,6,24,0.00
2014-10-8,60,48,36,39,36,31,99,67,39,0.00,40.00,19,6,28,0.00
2014-10-9,55,44,33,38,34,32,96,73,46,0.00,40.00,7,3,13,0.00
2014-10-10,58,43,31,37,34,30,99,73,43,0.00,40.00,7,2,11,0.00
2014-10-11,58,42,29,38,33,29,99,73,40,0.00,40.00,6,1,12,0.00
2014-10-12,58,44,30,49,38,29,99,82,46,0.00,40.00,8,3,16,0.00
2014-10-13,55,52,49,54,51,49,99,99,97,0.00,40.00,6,3,14,0.00
2014-10-14,53,51,49,52,49,45,99,95,77,0.00,40.00,11,6,20,0.00
2014-10-15,58,52,45,52,46,40,99,83,72,0.00,40.00,9,4,18,0.00
2014-10-16,66,52,38,50,45,37,99,82,54,0.00,40.00,7,2,17,0.00
2014-10-17,53,51,46,52,48,42,98,88,76,0.00,40.00,15,8,26,0.00
2014-10-18,52,44,33,44,38,32,99,77,46,0.00,40.00,9,5,17,0.00
2014-10-19,61,46,29,48,39,29,99,81,56,0.00,40.00,11,4,23,0.00
2014-10-20,58,53,43,48,44,41,91,74,57,0.00,40.00,12,6,27,0.00
2014-10-21,52,43,33,41,38,33,99,84,59,0.00,40.00,6,3,11,0.00
2014-10-22,58,40,27,41,33,27,99,80,44,0.00,40.00,6,3,12,0.00
2014-10-23,51,47,40,47,44,38,99,94,66,0.00,40.00,5,2,12,0.00
2014-10-24,48,48,47,48,47,47,99,99,99,0.00,40.00,2,1,6,0.00
2014-10-25,63,58,51,54,35,27,99,46,29,0.00,40.00,17,9,23,0.00
2014-10-26,63,50,31,33,31,29,96,54,29,0.00,40.00,8,4,11,0.00
2014-10-27,69,58,49,59,46,33,97,65,42,0.00,40.00,8,4,12,0.00
2014-10-28,58,47,42,56,42,35,97,81,65,0.00,40.00,16,9,27,0.00
2014-10-29,49,41,33,38,34,32,99,78,60,0.00,40.00,12,6,27,0.00
2014-10-30,49,41,31,40,35,31,99,83,64,0.00,40.00,13,3,24,0.00
2014-10-31,41,34,29,33,23,20,76,65,48,0.00,40.00,17,10,32,0.00
2014-11-1,43,30,19,26,22,19,99,76,41,0.00,40.00,6,1,11,0.00
2014-11-2,54,41,25,29,25,22,99,57,30,0.00,40.00,11,5,21,0.00
2014-11-3,57,48,42,55,37,23,96,65,43,0.00,40.00,8,5,17,0.00
2014-11-4,56,48,39,55,38,30,99,72,48,0.00,40.00,17,9,27,0.00
2014-11-5,47,40,33,42,36,30,99,86,69,0.00,40.00,8,3,12,0.00
2014-11-6,40,36,34,40,32,27,99,86,68,0.00,40.00,12,7,19,0.00
2014-11-7,41,38,32,36,29,26,89,71,59,0.00,40.00,10,6,18,0.00
2014-11-8,42,38,35,40,28,22,95,66,50,0.00,40.00,17,10,34,0.00
2014-11-9,44,38,34,34,30,19,99,73,54,0.00,40.00,7,4,16,0.00
2014-11-10,39,35,32,37,32,20,99,90,56,0.00,40.00,12,7,20,0.00
2014-11-11,32,29,20,32,26,16,99,90,75,0.00,40.00,16,10,26,0.00
2014-11-12,25,21,17,19,16,13,89,82,73,0.00,40.00,9,6,19,0.00
2014-11-13,25,22,18,20,18,16,96,86,72,0.00,40.00,12,6,20,0.00
2014-11-14,23,20,10,18,14,9,95,78,64,0.00,40.00,9,4,13,0.00
2014-11-15,24,17,7,20,14,6,99,88,59,0.00,40.00,5,2,7,0.00
2014-11-16,27,20,10,22,16,5,99,84,57,0.00,40.00,9,5,21,0.00
2014-11-17,14,12,9,11,6,4,94,81,67,0.00,40.00,14,9,27,0.00
2014-11-18,16,13,10,9,7,5,86,75,64,0.00,40.00,15,7,22,0.00
2014-11-19,23,20,16,19,15,9,96,82,63,0.00,40.00,14,8,24,0.00
2014-11-20,19,15,3,15,5,-2,86,68,47,0.00,40.00,15,7,26,0.00
2014-11-21,32,17,-2,22,7,-3,95,69,42,0.00,40.00,11,4,21,0.00
2014-11-22,47,37,33,47,36,25,99,94,73,0.00,40.00,11,5,19,0.00
2014-11-23,51,49,45,51,48,45,99,99,99,0.00,40.00,7,4,15,0.00
2014-11-24,46,30,22,45,30,18,99,97,85,0.00,40.00,19,11,31,0.00
2014-11-25,26,21,18,18,16,14,88,81,68,0.00,40.00,13,6,19,0.00
2014-11-26,28,21,14,24,18,13,98,89,72,0.00,40.00,6,4,14,0.00
2014-11-27,23,12,3,22,7,-2,94,79,61,0.00,40.00,9,5,16,0.00
2014-11-28,27,19,10,24,15,5,99,85,65,0.00,40.00,10,6,14,0.00
2014-11-29,44,30,22,36,28,22,99,92,71,0.00,40.00,5,3,12,0.00
2014-11-30,37,23,11,34,14,2,96,72,54,0.00,40.00,16,10,26,0.00
2014-12-1,11,6,0,2,-4,-7,84,65,47,0.00,40.00,14,4,20,0.00
2014-12-2,27,18,0,22,13,-3,91,80,67,0.00,40.00,10,5,19,0.00
2014-12-3,27,22,13,22,14,9,84,72,54,0.00,40.00,9,5,23,0.00
2014-12-4,29,21,12,19,12,8,94,73,40,0.00,40.00,11,4,17,0.00
2014-12-5,35,30,24,33,28,19,99,92,81,0.00,40.00,4,3,9,0.00
2014-12-6,33,25,15,29,21,13,99,83,51,0.00,40.00,7,2,10,0.00
2014-12-7,35,26,15,31,20,14,99,83,51,0.00,40.00,9,4,17,0.00
2014-12-8,34,32,29,34,32,26,99,98,90,0.00,40.00,14,6,21,0.00
2014-12-9,34,27,18,26,24,18,99,89,72,0.00,40.00,8,4,14,0.00
2014-12-10,24,22,19,24,21,18,99,96,98,0.00,40.00,4,2,8,0.00
2014-12-11,28,24,21,26,23,21,99,94,87,0.00,40.00,8,4,13,0.00
2014-12-12,35,32,26,35,32,26,99,99,99,0.00,40.00,8,4,16,0.00
2014-12-13,44,40,33,44,39,33,99,99,99,0.00,40.00,7,3,14,0.00
2014-12-14,48,45,43,47,45,43,99,98,99,0.00,40.00,6,3,11,0.00
2014-12-15,47,45,43,47,45,43,99,99,99,0.00,40.00,6,4,12,0.00
2014-12-16,42,32,24,42,29,19,99,90,78,0.00,40.00,16,10,26,0.00
2014-12-17,24,20,18,20,15,13,85,81,78,0.00,40.00,10,7,19,0.00
2014-12-18,25,23,19,22,20,14,92,88,79,0.00,40.00,3,2,6,0.00
2014-12-19,29,26,24,24,22,21,92,87,74,0.00,40.00,6,3,8,0.00
2014-12-20,31,27,26,29,25,24,97,92,89,0.00,40.00,6,4,10,0.00
2014-12-21,37,34,30,36,33,29,99,98,95,0.00,40.00,9,6,18,0.00
2014-12-22,38,35,33,35,34,33,99,96,87,0.00,40.00,11,7,19,0.00
2014-12-23,35,34,33,35,34,32,99,99,99,0.00,40.00,6,3,14,0.00
2014-12-24,35,34,32,34,33,31,99,98,89,0.00,40.00,9,6,16,0.00
2014-12-25,37,32,29,32,30,29,99,92,80,0.00,40.00,10,5,19,0.00
2014-12-26,45,35,26,38,32,26,99,90,67,0.00,40.00,4,1,7,0.00
2014-12-27,34,30,20,34,28,18,99,94,85,0.00,40.00,15,6,24,0.00
2014-12-28,30,21,14,21,17,12,98,86,67,0.00,40.00,7,4,14,0.00
2014-12-29,16,11,2,15,6,-4,98,81,68,0.00,40.00,10,5,14,0.00
2014-12-30,8,2,-2,-4,-7,-9,79,66,45,0.00,40.00,11,6,17,0.00
2014-12-31,19,7,-4,6,-1,-6,90,73,50,0.00,40.00,14,8,30,0.00
2015-1-1,26,19,11,22,14,5,88,80,70,0.00,40.00,9,5,19,0.00
2015-1-2,32,20,8,18,10,5,91,68,39,0.00,40.00,6,2,11,0.00